Anvik, Alaska
Current Conditions -  °F | °C
As of 11:16 PM on Friday 24 Oct 2014 (Local Time) from PANV Reporting Station
Overcast Overcast  
Wind Chill: 21°   Ceiling: 600
Heat Index: 30°   Visibility: 4mi
Dew Point: 27°   Wind: 12mph
Humidity: 86%   Direction: 180°S
Pressure: 29.89"   Gusts: NA
Location:  62.66°N, 160.21°W
Report Text: PANV 250716Z AUTO 18010KT 4SM OVC006 M01/M03 A2989 RMK AO1
Loading
Personal Weather Stations






























Interactive Weather Map New forecast layout! Learn more

10-Day Weather Forecast

Advertisements
Track Severe Weather on mobile